Kermit, Texas
Current Conditions -  °F | °C
As of 10:53 AM on Thursday 30 Oct 2014 (Local Time) from KINK Reporting Station
Clear Clear  
Wind Chill: 67°   Ceiling: Unl
Heat Index: 67°   Visibility: 10mi
Dew Point: 53°   Wind: 5mph
Humidity: 61%   Direction: NA
Pressure: 30.16"   Gusts: NA
Location:  31.85°N, 103.08°W
Report Text: KINK 301553Z AUTO VRB04KT 10SM CLR 19/12 A3016 RMK AO2 SLP183 T01940117
Loading
Personal Weather Stations






























Interactive Weather Map
Tropical Storm Tracking
New forecast layout! Learn more

10-Day Weather Forecast

Advertisements
Track Severe Weather on mobile